createdAt,value
2023-05-06T00:01:23.181Z,7.90
2023-05-06T00:04:11.002Z,15.13
2023-05-06T00:07:02.596Z,9.45
2023-05-06T00:09:50.449Z,9.13
2023-05-06T00:12:38.457Z,13.02
2023-05-06T00:15:26.182Z,13.43
2023-05-06T00:18:15.250Z,12.25
2023-05-06T00:21:03.437Z,12.30
2023-05-06T00:23:52.829Z,11.05
2023-05-06T00:26:40.638Z,11.80
2023-05-06T00:29:28.487Z,11.35
2023-05-06T00:32:16.386Z,10.75
2023-05-06T00:35:04.556Z,9.82
2023-05-06T00:37:59.163Z,9.07
2023-05-06T00:40:49.102Z,9.10
2023-05-06T00:43:37.392Z,8.02
2023-05-06T00:46:25.677Z,4.70
2023-05-06T00:49:13.919Z,6.28
2023-05-06T00:52:02.224Z,6.32
2023-05-06T00:54:50.599Z,7.07
2023-05-06T00:57:40.889Z,6.80
2023-05-06T01:00:28.983Z,7.35
2023-05-06T01:03:17.264Z,6.05
2023-05-06T01:06:13.023Z,6.70
2023-05-06T01:09:08.743Z,5.75
2023-05-06T01:12:01.154Z,4.20
2023-05-06T01:15:01.214Z,4.40
2023-05-06T01:17:54.722Z,4.43
2023-05-06T01:20:44.227Z,3.33
2023-05-06T01:23:52.038Z,3.50
2023-05-06T01:26:42.405Z,2.90
2023-05-06T01:29:30.773Z,3.20
2023-05-06T01:32:42.643Z,3.88
2023-05-06T01:35:38.982Z,3.00
2023-05-06T01:38:36.508Z,2.78
2023-05-06T01:41:26.231Z,2.83
2023-05-06T01:44:15.983Z,2.85
2023-05-06T01:47:04.097Z,3.00
2023-05-06T01:49:52.194Z,3.25
2023-05-06T01:52:40.348Z,2.90
2023-05-06T01:55:30.249Z,2.78
2023-05-06T01:58:18.210Z,3.00
2023-05-06T02:01:06.141Z,3.70
2023-05-06T02:03:57.162Z,2.90
2023-05-06T02:06:45.238Z,3.47
2023-05-06T02:09:33.282Z,2.97
2023-05-06T02:12:24.562Z,4.32
2023-05-06T02:15:12.935Z,3.15
2023-05-06T02:18:02.722Z,2.80
2023-05-06T02:20:50.991Z,2.60
2023-05-06T02:23:39.133Z,2.60
2023-05-06T02:26:27.161Z,2.67
2023-05-06T02:29:16.181Z,2.75
2023-05-06T02:32:04.226Z,3.03
2023-05-06T02:34:53.524Z,2.35
2023-05-06T02:37:41.351Z,7.72
2023-05-06T02:40:29.595Z,3.47
2023-05-06T02:43:17.277Z,2.80
2023-05-06T02:46:06.673Z,3.67
2023-05-06T02:48:54.441Z,3.63
2023-05-06T02:51:42.583Z,5.07
2023-05-06T02:54:30.412Z,3.92
2023-05-06T02:57:18.508Z,3.30
2023-05-06T03:00:10.911Z,4.68
2023-05-06T03:03:00.371Z,4.53
2023-05-06T03:05:48.223Z,4.25
2023-05-06T03:08:36.236Z,5.13
2023-05-06T03:11:23.999Z,4.20
2023-05-06T03:14:12.149Z,4.20
2023-05-06T03:17:00.059Z,4.60
2023-05-06T03:19:50.464Z,5.10
2023-05-06T03:22:38.291Z,5.63
2023-05-06T03:25:26.219Z,4.63
2023-05-06T03:28:14.295Z,5.35
2023-05-06T03:31:02.784Z,4.90
2023-05-06T03:33:50.362Z,4.93
2023-05-06T03:36:39.710Z,4.68
2023-05-06T03:39:27.624Z,7.05
2023-05-06T03:42:16.230Z,4.28
2023-05-06T03:45:04.974Z,4.88
2023-05-06T03:47:53.005Z,5.13
2023-05-06T03:50:41.357Z,9.82
2023-05-06T03:53:30.865Z,7.50
2023-05-06T03:56:18.878Z,5.07
2023-05-06T03:59:06.649Z,8.43
2023-05-06T04:01:54.580Z,4.65
2023-05-06T04:04:42.604Z,6.97
2023-05-06T04:07:31.030Z,6.07
2023-05-06T04:10:20.403Z,9.10
2023-05-06T04:13:08.316Z,4.75
2023-05-06T04:15:56.882Z,5.53
2023-05-06T04:18:46.118Z,4.85
2023-05-06T04:21:34.202Z,4.80
2023-05-06T04:24:21.902Z,4.15
2023-05-06T04:27:11.178Z,3.83
2023-05-06T04:29:59.116Z,5.82
2023-05-06T04:32:47.386Z,5.03
2023-05-06T04:35:36.672Z,5.13
2023-05-06T04:38:25.820Z,5.57
2023-05-06T04:41:13.980Z,5.70
2023-05-06T04:44:03.660Z,6.00
2023-05-06T04:46:51.948Z,5.00
2023-05-06T04:49:39.837Z,7.82
2023-05-06T04:52:27.765Z,7.35
2023-05-06T04:55:15.751Z,8.52
2023-05-06T04:58:03.422Z,7.95
2023-05-06T05:00:52.836Z,6.95
2023-05-06T05:03:43.343Z,9.73
2023-05-06T05:06:31.996Z,8.52
2023-05-06T05:09:19.947Z,7.70
2023-05-06T05:12:11.302Z,8.80
2023-05-06T05:14:59.336Z,9.27
2023-05-06T05:17:49.023Z,13.90
2023-05-06T05:20:36.864Z,8.75
2023-05-06T05:23:24.707Z,8.65
2023-05-06T05:26:12.645Z,11.68
2023-05-06T05:29:00.960Z,7.10
2023-05-06T05:31:48.872Z,13.05
2023-05-06T05:34:41.132Z,8.70
2023-05-06T05:37:29.297Z,8.55
2023-05-06T05:40:17.108Z,7.97
2023-05-06T05:43:05.130Z,9.95
2023-05-06T05:45:53.154Z,7.95
2023-05-06T05:48:41.510Z,7.90
2023-05-06T05:51:31.100Z,10.27
2023-05-06T05:54:19.077Z,8.65
2023-05-06T05:57:13.017Z,10.65
2023-05-06T06:00:02.146Z,7.95
2023-05-06T06:02:50.241Z,8.75
2023-05-06T06:05:38.582Z,7.40
2023-05-06T06:08:55.294Z,7.43
2023-05-06T06:11:43.594Z,9.48
2023-05-06T06:14:31.470Z,7.60
2023-05-06T06:17:19.542Z,10.07
2023-05-06T06:20:09.131Z,8.88
2023-05-06T06:22:56.868Z,8.98
2023-05-06T06:25:46.160Z,9.25
2023-05-06T06:28:34.021Z,11.73
2023-05-06T06:31:21.930Z,8.90
2023-05-06T06:34:12.494Z,11.05
2023-05-06T06:37:00.237Z,10.88
2023-05-06T06:39:48.294Z,11.07
2023-05-06T06:42:38.009Z,9.18
2023-05-06T06:45:25.872Z,5.72
2023-05-06T06:48:14.052Z,6.82
2023-05-06T06:51:02.335Z,8.35
2023-05-06T06:53:50.739Z,7.97
2023-05-06T06:56:38.772Z,9.10
2023-05-06T06:59:28.123Z,10.25
2023-05-06T07:02:15.958Z,11.05
2023-05-06T07:05:04.044Z,10.23
2023-05-06T07:07:51.661Z,4.82
2023-05-06T07:10:39.710Z,8.63
2023-05-06T07:13:27.780Z,6.80
2023-05-06T07:16:17.320Z,7.45
2023-05-06T07:19:05.296Z,6.40
2023-05-06T07:21:53.162Z,6.63
2023-05-06T07:24:41.249Z,6.72
2023-05-06T07:27:30.796Z,6.40
2023-05-06T07:30:21.039Z,5.30
2023-05-06T07:33:12.513Z,6.63
2023-05-06T07:36:00.608Z,6.30
2023-05-06T07:38:48.470Z,7.82
2023-05-06T07:41:37.215Z,9.52
2023-05-06T07:44:25.365Z,4.72
2023-05-06T07:47:13.528Z,5.80
2023-05-06T07:50:02.882Z,5.90
2023-05-06T07:52:50.977Z,5.60
2023-05-06T07:55:39.051Z,6.78
2023-05-06T07:58:27.074Z,7.18
2023-05-06T08:01:14.986Z,7.82
2023-05-06T08:04:03.216Z,8.18
2023-05-06T08:06:52.359Z,5.25
2023-05-06T08:09:40.450Z,6.43
2023-05-06T08:12:28.460Z,6.80
2023-05-06T08:15:16.615Z,6.65
2023-05-06T08:18:17.906Z,6.97
2023-05-06T08:21:09.336Z,10.13
2023-05-06T08:23:58.799Z,5.35
2023-05-06T08:26:46.633Z,3.80
2023-05-06T08:29:34.629Z,4.88
2023-05-06T08:32:22.707Z,8.15
2023-05-06T08:35:11.523Z,7.22
2023-05-06T08:37:59.353Z,5.72
2023-05-06T08:40:50.872Z,7.18
2023-05-06T08:43:44.320Z,6.10
2023-05-06T08:46:32.283Z,3.88
2023-05-06T08:49:20.174Z,4.05
2023-05-06T08:52:08.133Z,4.63
2023-05-06T08:55:01.181Z,4.13
2023-05-06T08:57:53.926Z,5.97
2023-05-06T09:00:42.209Z,5.07
2023-05-06T09:03:30.248Z,5.13
2023-05-06T09:06:18.360Z,3.65
2023-05-06T09:09:06.699Z,5.15
2023-05-06T09:11:57.475Z,5.60
2023-05-06T09:14:50.414Z,4.95
2023-05-06T09:17:38.606Z,3.28
2023-05-06T09:20:26.908Z,3.72
2023-05-06T09:23:15.820Z,8.90
2023-05-06T09:26:03.682Z,3.65
2023-05-06T09:28:54.843Z,4.22
2023-05-06T09:31:46.187Z,5.68
2023-05-06T09:34:34.330Z,4.75
2023-05-06T09:37:22.028Z,3.85
2023-05-06T09:40:11.038Z,8.55
2023-05-06T09:43:00.276Z,7.40
2023-05-06T09:45:49.490Z,7.25
2023-05-06T09:48:40.890Z,4.72
2023-05-06T09:51:29.023Z,2.83
2023-05-06T09:54:18.548Z,2.88
2023-05-06T09:57:06.996Z,2.30
2023-05-06T09:59:59.216Z,2.60
2023-05-06T10:02:47.968Z,3.03
2023-05-06T10:05:38.694Z,4.72
2023-05-06T10:08:27.386Z,4.57
2023-05-06T10:11:16.234Z,2.08
2023-05-06T10:14:05.182Z,4.30
2023-05-06T10:16:54.632Z,2.60
2023-05-06T10:19:46.186Z,2.65
2023-05-06T10:22:49.875Z,2.42
2023-05-06T10:25:40.036Z,4.13
2023-05-06T10:28:31.481Z,3.65
2023-05-06T10:31:19.886Z,3.20
2023-05-06T10:34:10.984Z,2.55
2023-05-06T10:37:01.459Z,3.33
2023-05-06T10:39:51.042Z,2.22
2023-05-06T10:42:38.703Z,2.38
2023-05-06T10:45:26.858Z,2.20
2023-05-06T10:48:15.002Z,2.90
2023-05-06T10:51:22.451Z,4.40
2023-05-06T10:54:11.504Z,2.17
2023-05-06T10:57:12.826Z,2.92
2023-05-06T11:00:01.248Z,2.77
2023-05-06T11:02:56.362Z,2.80
2023-05-06T11:05:51.665Z,2.38
2023-05-06T11:08:48.501Z,2.42
2023-05-06T11:12:00.338Z,3.95
2023-05-06T11:14:50.400Z,3.75
2023-05-06T11:17:38.680Z,3.67
2023-05-06T11:20:27.322Z,3.47
2023-05-06T11:23:15.279Z,3.30
2023-05-06T11:26:08.101Z,3.30
2023-05-06T11:28:56.557Z,3.28
2023-05-06T11:31:47.008Z,3.65
2023-05-06T11:34:36.803Z,4.15
2023-05-06T11:37:27.256Z,3.80
2023-05-06T11:40:18.287Z,3.88
2023-05-06T11:43:13.595Z,4.03
2023-05-06T11:46:01.596Z,3.80
2023-05-06T11:48:51.765Z,2.85
2023-05-06T11:51:39.716Z,4.03
2023-05-06T11:54:29.107Z,4.80
2023-05-06T11:57:17.029Z,2.90
2023-05-06T12:00:07.312Z,2.80
2023-05-06T12:03:16.070Z,1.95
2023-05-06T12:06:05.805Z,2.50
2023-05-06T12:08:56.028Z,1.73
2023-05-06T12:11:45.069Z,1.33
2023-05-06T12:14:33.141Z,3.15
2023-05-06T12:17:21.494Z,1.90
2023-05-06T12:20:13.103Z,1.70
2023-05-06T12:23:09.205Z,2.55
2023-05-06T12:26:04.806Z,2.60
2023-05-06T12:29:08.332Z,1.83
2023-05-06T12:32:10.282Z,1.70
2023-05-06T12:37:47.377Z,2.95
2023-05-06T12:40:36.836Z,3.15
2023-05-06T12:43:31.319Z,2.88
2023-05-06T12:46:19.900Z,3.67
2023-05-06T12:49:09.806Z,3.42
2023-05-06T12:52:08.563Z,3.72
2023-05-06T12:54:56.624Z,3.15
2023-05-06T12:57:46.095Z,2.70
2023-05-06T13:00:33.956Z,1.83
2023-05-06T13:03:22.146Z,1.15
2023-05-06T13:06:09.898Z,3.65
2023-05-06T13:08:58.889Z,1.13
2023-05-06T13:11:46.791Z,2.03
2023-05-06T13:14:38.546Z,1.35
2023-05-06T13:17:28.689Z,1.08
2023-05-06T13:20:17.031Z,2.72
2023-05-06T13:23:05.082Z,1.52
2023-05-06T13:26:03.571Z,1.15
2023-05-06T13:28:53.361Z,1.02
2023-05-06T13:31:42.740Z,2.25
2023-05-06T13:34:30.735Z,1.55
2023-05-06T13:37:18.797Z,1.10
2023-05-06T13:40:08.587Z,2.00
2023-05-06T13:42:56.463Z,1.10
2023-05-06T13:45:45.043Z,3.15
2023-05-06T13:48:34.413Z,1.75
2023-05-06T13:51:22.333Z,1.88
2023-05-06T13:54:10.431Z,1.40
2023-05-06T13:56:58.977Z,2.63
2023-05-06T13:59:46.913Z,1.30
2023-05-06T14:02:35.037Z,3.17
2023-05-06T14:05:24.387Z,1.30
2023-05-06T14:08:12.264Z,1.98
2023-05-06T14:11:00.343Z,1.45
2023-05-06T14:13:49.165Z,1.40
2023-05-06T14:16:37.233Z,1.40
2023-05-06T14:19:25.006Z,1.30
2023-05-06T14:22:14.351Z,1.45
2023-05-06T14:25:04.899Z,1.60
2023-05-06T14:27:53.008Z,2.05
2023-05-06T14:30:41.087Z,1.83
2023-05-06T14:33:28.794Z,1.55
2023-05-06T14:36:20.000Z,1.60
2023-05-06T14:39:09.142Z,1.57
2023-05-06T14:41:57.502Z,3.47
2023-05-06T14:44:48.551Z,1.40
2023-05-06T14:47:36.410Z,1.80
2023-05-06T14:50:24.148Z,1.75
2023-05-06T14:53:11.826Z,1.00
2023-05-06T14:56:01.015Z,1.60
2023-05-06T14:58:48.986Z,2.00
2023-05-06T15:01:37.084Z,3.83
2023-05-06T15:04:24.922Z,3.63
2023-05-06T15:07:13.032Z,4.18
2023-05-06T15:10:00.974Z,2.88
2023-05-06T15:12:50.412Z,4.57
2023-05-06T15:15:38.522Z,4.97
2023-05-06T15:18:26.558Z,4.78
2023-05-06T15:21:14.457Z,3.72
2023-05-06T15:24:02.739Z,4.10
2023-05-06T15:26:50.792Z,5.20
2023-05-06T15:29:40.946Z,3.45
2023-05-06T15:32:28.566Z,4.35
2023-05-06T15:35:16.962Z,5.13
2023-05-06T15:38:05.322Z,5.00
2023-05-06T15:40:53.956Z,4.75
2023-05-06T15:43:41.528Z,4.70
2023-05-06T15:46:31.961Z,3.63
2023-05-06T15:49:47.445Z,3.03
2023-05-06T15:52:27.899Z,2.95
2023-05-06T15:55:17.070Z,2.33
2023-05-06T15:58:05.196Z,1.60
2023-05-06T16:00:52.791Z,1.50
2023-05-06T16:03:42.507Z,1.05
2023-05-06T16:06:30.951Z,1.40
2023-05-06T16:09:18.650Z,1.10
2023-05-06T16:12:07.191Z,1.25
2023-05-06T16:14:54.842Z,1.67
2023-05-06T16:17:52.147Z,1.77
2023-05-06T16:20:46.323Z,1.45
2023-05-06T16:23:34.011Z,1.80
2023-05-06T16:26:22.119Z,1.90
2023-05-06T16:29:10.198Z,1.77
2023-05-06T16:31:58.310Z,2.25
2023-05-06T16:34:46.299Z,1.95
2023-05-06T16:37:35.479Z,1.85
2023-05-06T16:40:23.482Z,2.00
2023-05-06T16:43:11.704Z,2.40
2023-05-06T16:45:59.644Z,2.00
2023-05-06T16:48:47.793Z,3.20
2023-05-06T16:51:35.501Z,2.47
2023-05-06T16:54:25.522Z,2.25
2023-05-06T16:57:13.393Z,2.58
2023-05-06T17:00:01.897Z,3.63
2023-05-06T17:02:50.179Z,3.63
2023-05-06T17:05:38.038Z,2.25
2023-05-06T17:08:26.826Z,3.95
2023-05-06T17:11:16.393Z,3.58
2023-05-06T17:14:04.100Z,2.50
2023-05-06T17:16:52.530Z,2.67
2023-05-06T17:19:40.586Z,2.25
2023-05-06T17:22:28.770Z,1.88
2023-05-06T17:25:16.611Z,1.65
2023-05-06T17:28:05.977Z,1.50
2023-05-06T17:30:53.776Z,2.47
2023-05-06T17:33:41.604Z,3.53
2023-05-06T17:36:29.459Z,3.55
2023-05-06T17:39:17.752Z,3.72
2023-05-06T17:42:06.019Z,3.50
2023-05-06T17:44:55.132Z,3.75
2023-05-06T17:47:42.786Z,5.20
2023-05-06T17:50:30.962Z,5.03
2023-05-06T17:53:18.741Z,3.70
2023-05-06T17:56:07.086Z,1.73
2023-05-06T17:58:54.813Z,1.58
2023-05-06T18:01:44.094Z,1.80
2023-05-06T18:04:32.146Z,3.05
2023-05-06T18:07:20.473Z,2.92
2023-05-06T18:10:09.806Z,7.03
2023-05-06T18:12:57.911Z,9.98
2023-05-06T18:15:45.589Z,4.60
2023-05-06T18:18:35.106Z,4.22
2023-05-06T18:21:23.440Z,6.32
2023-05-06T18:24:16.486Z,4.57
2023-05-06T18:27:05.146Z,3.83
2023-05-06T18:29:54.755Z,5.68
2023-05-06T18:32:42.814Z,4.55
2023-05-06T18:35:32.067Z,4.28
2023-05-06T18:38:20.146Z,5.85
2023-05-06T18:41:09.155Z,4.88
2023-05-06T18:43:57.051Z,3.90
2023-05-06T18:46:45.108Z,3.58
2023-05-06T18:49:33.175Z,4.85
2023-05-06T18:52:22.918Z,4.88
2023-05-06T18:55:11.300Z,3.90
2023-05-06T18:57:59.474Z,4.45
2023-05-06T19:00:47.409Z,6.40
2023-05-06T19:03:36.543Z,3.63
2023-05-06T19:06:24.583Z,2.60
2023-05-06T19:09:13.554Z,2.78
2023-05-06T19:12:01.257Z,2.95
2023-05-06T19:14:49.246Z,2.25
2023-05-06T19:17:37.177Z,4.00
2023-05-06T19:20:24.999Z,3.40
2023-05-06T19:23:13.020Z,4.00
2023-05-06T19:26:02.760Z,3.70
2023-05-06T19:28:51.773Z,5.03
2023-05-06T19:31:39.946Z,4.05
2023-05-06T19:34:27.689Z,3.63
2023-05-06T19:37:15.591Z,4.00
2023-05-06T19:40:04.191Z,5.65
2023-05-06T19:42:53.774Z,6.03
2023-05-06T19:45:41.806Z,3.72
2023-05-06T19:48:30.410Z,3.08
2023-05-06T19:51:18.290Z,3.25
2023-05-06T19:54:06.279Z,2.47
2023-05-06T19:56:54.497Z,2.88
2023-05-06T19:59:43.621Z,2.67
2023-05-06T20:02:31.650Z,2.38
2023-05-06T20:05:19.658Z,2.85
2023-05-06T20:08:10.766Z,3.50
2023-05-06T20:10:59.156Z,4.43
2023-05-06T20:13:47.091Z,4.05
2023-05-06T20:16:36.495Z,4.53
2023-05-06T20:19:29.194Z,5.10
2023-05-06T20:25:13.022Z,6.68
2023-05-06T20:28:01.925Z,7.28
2023-05-06T20:30:51.347Z,7.25
2023-05-06T20:33:40.699Z,7.25
2023-05-06T20:36:29.011Z,6.68
2023-05-06T20:39:16.721Z,6.95
2023-05-06T20:42:04.604Z,7.03
2023-05-06T20:44:52.978Z,7.70
2023-05-06T20:47:40.774Z,6.15
2023-05-06T20:50:30.826Z,7.65
2023-05-06T20:53:18.779Z,5.85
2023-05-06T20:56:16.929Z,6.07
2023-05-06T20:59:05.800Z,6.38
2023-05-06T21:01:53.597Z,5.25
2023-05-06T21:04:42.239Z,4.85
2023-05-06T21:07:31.848Z,5.47
2023-05-06T21:10:19.899Z,5.07
2023-05-06T21:13:08.033Z,5.60
2023-05-06T21:15:56.118Z,7.43
2023-05-06T21:18:44.390Z,7.32
2023-05-06T21:21:33.292Z,6.63
2023-05-06T21:24:22.438Z,6.95
2023-05-06T21:27:10.477Z,4.78
2023-05-06T21:29:58.466Z,4.80
2023-05-06T21:32:46.710Z,6.45
2023-05-06T21:35:34.677Z,7.22
2023-05-06T21:38:22.517Z,6.88
2023-05-06T21:41:12.083Z,6.00
2023-05-06T21:44:00.105Z,5.25
2023-05-06T21:46:48.382Z,6.35
2023-05-06T21:49:36.199Z,6.00
2023-05-06T21:52:24.617Z,8.45
2023-05-06T21:55:12.675Z,5.30
2023-05-06T21:58:02.388Z,5.45
2023-05-06T22:00:50.304Z,5.25
2023-05-06T22:03:38.413Z,5.38
2023-05-06T22:06:26.127Z,6.35
2023-05-06T22:09:14.365Z,5.43
2023-05-06T22:12:06.494Z,4.80
2023-05-06T22:14:55.956Z,5.43
2023-05-06T22:17:43.670Z,4.47
2023-05-06T22:20:32.400Z,5.45
2023-05-06T22:23:21.791Z,5.15
2023-05-06T22:26:11.334Z,6.43
2023-05-06T22:28:59.519Z,5.47
2023-05-06T22:31:48.521Z,5.47
2023-05-06T22:34:36.312Z,5.47
2023-05-06T22:37:24.328Z,5.75
2023-05-06T22:40:13.281Z,5.50
2023-05-06T22:43:00.972Z,5.80
2023-05-06T22:45:48.932Z,5.70
2023-05-06T22:48:38.373Z,5.65
2023-05-06T22:51:26.247Z,5.35
2023-05-06T22:54:14.126Z,5.05
2023-05-06T22:57:01.996Z,6.85
2023-05-06T22:59:49.876Z,5.63
2023-05-06T23:02:37.911Z,5.85
2023-05-06T23:05:27.004Z,6.90
2023-05-06T23:08:14.962Z,8.02
2023-05-06T23:11:02.966Z,6.70
2023-05-06T23:13:51.066Z,6.97
2023-05-06T23:16:39.146Z,6.68
2023-05-06T23:19:26.908Z,7.18
2023-05-06T23:22:16.441Z,6.50
2023-05-06T23:25:04.140Z,6.35
2023-05-06T23:27:52.000Z,5.78
2023-05-06T23:30:40.108Z,6.72
2023-05-06T23:33:28.191Z,5.82
2023-05-06T23:36:16.763Z,5.93
2023-05-06T23:39:06.022Z,5.78
2023-05-06T23:41:53.779Z,5.28
2023-05-06T23:44:41.656Z,5.88
2023-05-06T23:47:29.776Z,5.93
2023-05-06T23:50:17.932Z,5.35
2023-05-06T23:53:05.641Z,5.07
2023-05-06T23:55:54.867Z,5.85
2023-05-06T23:58:42.788Z,5.60
